sensor_id;sensor_type;location;lat;lon;timestamp;pressure;altitude;pressure_sealevel;temperature;humidity
28606;BME280;46498;49.968;7.754;2024-03-02T00:04:39;-18376.00;;;3.09;100.00
28606;BME280;46498;49.968;7.754;2024-03-02T00:09:40;-18375.00;;;3.05;100.00
28606;BME280;46498;49.968;7.754;2024-03-02T00:14:41;-18379.00;;;3.18;100.00
28606;BME280;46498;49.968;7.754;2024-03-02T00:19:42;-18376.00;;;3.10;100.00
28606;BME280;46498;49.968;7.754;2024-03-02T00:24:43;-18376.00;;;3.08;100.00
28606;BME280;46498;49.968;7.754;2024-03-02T00:29:44;-18372.00;;;2.96;100.00
28606;BME280;46498;49.968;7.754;2024-03-02T00:34:45;-18372.00;;;2.97;100.00
28606;BME280;46498;49.968;7.754;2024-03-02T00:39:49;-18377.00;;;3.12;100.00
28606;BME280;46498;49.968;7.754;2024-03-02T00:44:50;-18375.00;;;3.04;100.00
28606;BME280;46498;49.968;7.754;2024-03-02T00:49:51;-18376.00;;;3.11;100.00
28606;BME280;46498;49.968;7.754;2024-03-02T00:54:55;-18377.00;;;3.13;100.00
28606;BME280;46498;49.968;7.754;2024-03-02T00:59:57;-18382.00;;;3.28;100.00
28606;BME280;46498;49.968;7.754;2024-03-02T01:04:58;-18378.00;;;3.16;100.00
28606;BME280;46498;49.968;7.754;2024-03-02T01:09:59;-18377.00;;;3.13;100.00
28606;BME280;46498;49.968;7.754;2024-03-02T01:15:00;-18375.00;;;3.05;100.00
28606;BME280;46498;49.968;7.754;2024-03-02T01:20:02;-18373.00;;;2.98;100.00
28606;BME280;46498;49.968;7.754;2024-03-02T01:25:03;-18368.00;;;2.84;100.00
28606;BME280;46498;49.968;7.754;2024-03-02T01:30:05;-18364.00;;;2.73;100.00
28606;BME280;46498;49.968;7.754;2024-03-02T01:35:06;-18364.00;;;2.73;100.00
28606;BME280;46498;49.968;7.754;2024-03-02T01:40:08;-18363.00;;;2.67;100.00
28606;BME280;46498;49.968;7.754;2024-03-02T01:45:09;-18358.00;;;2.53;100.00
28606;BME280;46498;49.968;7.754;2024-03-02T01:50:11;-18353.00;;;2.37;100.00
28606;BME280;46498;49.968;7.754;2024-03-02T01:55:12;-18345.00;;;2.11;100.00
28606;BME280;46498;49.968;7.754;2024-03-02T02:00:14;-18351.00;;;2.31;100.00
28606;BME280;46498;49.968;7.754;2024-03-02T02:05:15;-18349.00;;;2.24;100.00
28606;BME280;46498;49.968;7.754;2024-03-02T02:10:17;-18347.00;;;2.19;100.00
28606;BME280;46498;49.968;7.754;2024-03-02T02:15:22;-18346.00;;;2.17;100.00
28606;BME280;46498;49.968;7.754;2024-03-02T02:20:24;-18344.00;;;2.07;100.00
28606;BME280;46498;49.968;7.754;2024-03-02T02:25:26;-18343.00;;;2.04;100.00
28606;BME280;46498;49.968;7.754;2024-03-02T02:30:29;-18342.00;;;2.03;100.00
28606;BME280;46498;49.968;7.754;2024-03-02T02:35:30;-18339.00;;;1.95;100.00
28606;BME280;46498;49.968;7.754;2024-03-02T02:40:31;-18330.00;;;1.65;100.00
28606;BME280;46498;49.968;7.754;2024-03-02T02:45:32;-18332.00;;;1.70;100.00
28606;BME280;46498;49.968;7.754;2024-03-02T02:50:33;-18333.00;;;1.76;100.00
28606;BME280;46498;49.968;7.754;2024-03-02T02:55:34;-18331.00;;;1.68;100.00
28606;BME280;46498;49.968;7.754;2024-03-02T03:00:35;-18327.00;;;1.57;100.00
28606;BME280;46498;49.968;7.754;2024-03-02T03:05:37;-18328.00;;;1.60;100.00
28606;BME280;46498;49.968;7.754;2024-03-02T03:10:38;-18330.00;;;1.65;100.00
28606;BME280;46498;49.968;7.754;2024-03-02T03:15:39;-18331.00;;;1.67;100.00
28606;BME280;46498;49.968;7.754;2024-03-02T03:20:40;-18332.00;;;1.72;100.00
28606;BME280;46498;49.968;7.754;2024-03-02T03:25:41;-18330.00;;;1.64;100.00
28606;BME280;46498;49.968;7.754;2024-03-02T03:30:42;-18334.00;;;1.79;100.00
28606;BME280;46498;49.968;7.754;2024-03-02T03:35:43;-18334.00;;;1.77;100.00
28606;BME280;46498;49.968;7.754;2024-03-02T03:40:44;-18329.00;;;1.61;100.00
28606;BME280;46498;49.968;7.754;2024-03-02T03:45:45;-18318.00;;;1.28;100.00
28606;BME280;46498;49.968;7.754;2024-03-02T03:50:46;-18319.00;;;1.30;100.00
28606;BME280;46498;49.968;7.754;2024-03-02T03:55:47;-18318.00;;;1.28;100.00
28606;BME280;46498;49.968;7.754;2024-03-02T04:00:50;-18317.00;;;1.23;100.00
28606;BME280;46498;49.968;7.754;2024-03-02T04:05:51;-18321.00;;;1.36;100.00
28606;BME280;46498;49.968;7.754;2024-03-02T04:10:52;-18322.00;;;1.41;100.00
28606;BME280;46498;49.968;7.754;2024-03-02T04:15:53;-18317.00;;;1.23;100.00
28606;BME280;46498;49.968;7.754;2024-03-02T04:20:54;-18313.00;;;1.12;100.00
28606;BME280;46498;49.968;7.754;2024-03-02T04:25:55;-18314.00;;;1.15;100.00
28606;BME280;46498;49.968;7.754;2024-03-02T04:30:56;-18317.00;;;1.24;100.00
28606;BME280;46498;49.968;7.754;2024-03-02T04:35:57;-18321.00;;;1.37;100.00
28606;BME280;46498;49.968;7.754;2024-03-02T04:40:58;-18325.00;;;1.50;100.00
28606;BME280;46498;49.968;7.754;2024-03-02T04:45:59;-18330.00;;;1.66;100.00
28606;BME280;46498;49.968;7.754;2024-03-02T04:51:01;-18331.00;;;1.67;100.00
28606;BME280;46498;49.968;7.754;2024-03-02T04:56:02;-18330.00;;;1.66;100.00
28606;BME280;46498;49.968;7.754;2024-03-02T05:02:25;-18334.00;;;1.79;100.00
28606;BME280;46498;49.968;7.754;2024-03-02T05:07:26;-18338.00;;;1.90;100.00
28606;BME280;46498;49.968;7.754;2024-03-02T05:12:26;-18340.00;;;1.97;100.00
28606;BME280;46498;49.968;7.754;2024-03-02T05:24:15;-18343.00;;;2.05;100.00
28606;BME280;46498;49.968;7.754;2024-03-02T05:29:16;-18344.00;;;2.10;100.00
28606;BME280;46498;49.968;7.754;2024-03-02T05:34:18;-18348.00;;;2.23;100.00
28606;BME280;46498;49.968;7.754;2024-03-02T05:39:19;-18353.00;;;2.37;100.00
28606;BME280;46498;49.968;7.754;2024-03-02T05:44:20;-18355.00;;;2.43;100.00
28606;BME280;46498;49.968;7.754;2024-03-02T05:49:22;-18360.00;;;2.59;100.00
28606;BME280;46498;49.968;7.754;2024-03-02T05:54:22;-18360.00;;;2.59;100.00
28606;BME280;46498;49.968;7.754;2024-03-02T05:59:23;-18360.00;;;2.59;100.00
28606;BME280;46498;49.968;7.754;2024-03-02T06:04:24;-18357.00;;;2.50;100.00
28606;BME280;46498;49.968;7.754;2024-03-02T06:09:26;-18358.00;;;2.52;100.00
28606;BME280;46498;49.968;7.754;2024-03-02T06:14:27;-18357.00;;;2.50;100.00
28606;BME280;46498;49.968;7.754;2024-03-02T06:19:28;-18359.00;;;2.57;100.00
28606;BME280;46498;49.968;7.754;2024-03-02T06:24:29;-18357.00;;;2.51;100.00
28606;BME280;46498;49.968;7.754;2024-03-02T06:29:32;-18357.00;;;2.51;100.00
28606;BME280;46498;49.968;7.754;2024-03-02T06:34:34;-18359.00;;;2.55;100.00
28606;BME280;46498;49.968;7.754;2024-03-02T06:39:35;-18358.00;;;2.54;100.00
28606;BME280;46498;49.968;7.754;2024-03-02T06:44:36;-18364.00;;;2.71;100.00
28606;BME280;46498;49.968;7.754;2024-03-02T06:49:37;-18370.00;;;2.89;100.00
28606;BME280;46498;49.968;7.754;2024-03-02T06:54:38;-18369.00;;;2.87;100.00
28606;BME280;46498;49.968;7.754;2024-03-02T06:59:39;-18372.00;;;2.98;100.00
28606;BME280;46498;49.968;7.754;2024-03-02T07:04:41;-18372.00;;;2.98;100.00
28606;BME280;46498;49.968;7.754;2024-03-02T07:09:42;-18372.00;;;2.98;100.00
28606;BME280;46498;49.968;7.754;2024-03-02T07:14:43;-18377.00;;;3.11;100.00
28606;BME280;46498;49.968;7.754;2024-03-02T07:20:12;-18380.00;;;3.21;100.00
28606;BME280;46498;49.968;7.754;2024-03-02T07:25:13;-18381.00;;;3.24;100.00
28606;BME280;46498;49.968;7.754;2024-03-02T07:30:18;-18383.00;;;3.31;100.00
28606;BME280;46498;49.968;7.754;2024-03-02T07:35:19;-18389.00;;;3.51;100.00
28606;BME280;46498;49.968;7.754;2024-03-02T07:40:20;-18393.00;;;3.62;100.00
28606;BME280;46498;49.968;7.754;2024-03-02T07:45:21;-18397.00;;;3.74;100.00
28606;BME280;46498;49.968;7.754;2024-03-02T07:50:25;-18399.00;;;3.81;100.00
28606;BME280;46498;49.968;7.754;2024-03-02T07:55:26;-18397.00;;;3.74;100.00
28606;BME280;46498;49.968;7.754;2024-03-02T08:00:27;-18395.00;;;3.69;100.00
28606;BME280;46498;49.968;7.754;2024-03-02T08:05:29;-18395.00;;;3.68;100.00
28606;BME280;46498;49.968;7.754;2024-03-02T08:10:29;-18394.00;;;3.64;100.00
28606;BME280;46498;49.968;7.754;2024-03-02T08:15:30;-18399.00;;;3.80;100.00
28606;BME280;46498;49.968;7.754;2024-03-02T08:20:31;-18397.00;;;3.76;100.00
28606;BME280;46498;49.968;7.754;2024-03-02T08:25:33;-18403.00;;;3.94;100.00
28606;BME280;46498;49.968;7.754;2024-03-02T08:30:34;-18410.00;;;4.14;100.00
28606;BME280;46498;49.968;7.754;2024-03-02T08:35:35;-18413.00;;;4.24;100.00
28606;BME280;46498;49.968;7.754;2024-03-02T08:40:36;-18415.00;;;4.33;100.00
28606;BME280;46498;49.968;7.754;2024-03-02T08:45:37;-18430.00;;;4.80;100.00
28606;BME280;46498;49.968;7.754;2024-03-02T08:50:40;-18436.00;;;4.97;100.00
28606;BME280;46498;49.968;7.754;2024-03-02T08:55:41;-18444.00;;;5.22;100.00
28606;BME280;46498;49.968;7.754;2024-03-02T09:00:42;-18451.00;;;5.44;100.00
28606;BME280;46498;49.968;7.754;2024-03-02T09:05:43;-18461.00;;;5.75;100.00
28606;BME280;46498;49.968;7.754;2024-03-02T09:10:44;-18468.00;;;5.97;100.00
28606;BME280;46498;49.968;7.754;2024-03-02T09:15:45;-18471.00;;;6.08;100.00
28606;BME280;46498;49.968;7.754;2024-03-02T09:20:46;-18471.00;;;6.07;100.00
28606;BME280;46498;49.968;7.754;2024-03-02T09:25:47;-18478.00;;;6.29;100.00
28606;BME280;46498;49.968;7.754;2024-03-02T09:30:48;-18477.00;;;6.25;100.00
28606;BME280;46498;49.968;7.754;2024-03-02T09:35:49;-18483.00;;;6.44;100.00
28606;BME280;46498;49.968;7.754;2024-03-02T09:40:50;-18486.00;;;6.54;100.00
28606;BME280;46498;49.968;7.754;2024-03-02T09:45:52;-18489.00;;;6.63;100.00
28606;BME280;46498;49.968;7.754;2024-03-02T09:50:57;-18501.00;;;7.00;100.00
28606;BME280;46498;49.968;7.754;2024-03-02T09:56:00;-18495.00;;;6.82;100.00
28606;BME280;46498;49.968;7.754;2024-03-02T10:01:01;-18488.00;;;6.60;100.00
28606;BME280;46498;49.968;7.754;2024-03-02T10:06:27;-18490.00;;;6.65;100.00
28606;BME280;46498;49.968;7.754;2024-03-02T10:11:33;-18480.00;;;6.35;100.00
28606;BME280;46498;49.968;7.754;2024-03-02T10:16:41;-18481.00;;;6.38;100.00
28606;BME280;46498;49.968;7.754;2024-03-02T10:22:05;-18483.00;;;6.43;100.00
28606;BME280;46498;49.968;7.754;2024-03-02T10:27:14;-18484.00;;;6.47;100.00
28606;BME280;46498;49.968;7.754;2024-03-02T10:32:16;-18481.00;;;6.37;100.00
28606;BME280;46498;49.968;7.754;2024-03-02T10:37:19;-18480.00;;;6.34;100.00
28606;BME280;46498;49.968;7.754;2024-03-02T10:42:22;-18481.00;;;6.38;100.00
28606;BME280;46498;49.968;7.754;2024-03-02T10:47:25;-18494.00;;;6.80;100.00
28606;BME280;46498;49.968;7.754;2024-03-02T10:52:27;-18501.00;;;7.02;100.00
28606;BME280;46498;49.968;7.754;2024-03-02T10:57:33;-18497.00;;;6.90;100.00
28606;BME280;46498;49.968;7.754;2024-03-02T11:02:39;-18512.00;;;7.34;100.00
28606;BME280;46498;49.968;7.754;2024-03-02T11:07:41;-18514.00;;;7.42;100.00
28606;BME280;46498;49.968;7.754;2024-03-02T11:12:54;-18552.00;;;8.62;100.00
28606;BME280;46498;49.968;7.754;2024-03-02T11:17:57;-18582.00;;;9.54;100.00
28606;BME280;46498;49.968;7.754;2024-03-02T11:23:07;-18578.00;;;9.43;100.00
28606;BME280;46498;49.968;7.754;2024-03-02T11:28:08;-18568.00;;;9.12;100.00
28606;BME280;46498;49.968;7.754;2024-03-02T11:33:13;-18586.00;;;9.68;100.00
28606;BME280;46498;49.968;7.754;2024-03-02T11:38:14;-18609.00;;;10.39;100.00
28606;BME280;46498;49.968;7.754;2024-03-02T11:43:15;-18598.00;;;10.05;100.00
28606;BME280;46498;49.968;7.754;2024-03-02T11:48:16;-18608.00;;;10.36;100.00
28606;BME280;46498;49.968;7.754;2024-03-02T11:53:19;-18590.00;;;9.80;100.00
28606;BME280;46498;49.968;7.754;2024-03-02T11:58:21;-18585.00;;;9.65;100.00
28606;BME280;46498;49.968;7.754;2024-03-02T12:03:25;-18586.00;;;9.66;100.00
28606;BME280;46498;49.968;7.754;2024-03-02T12:08:26;-18594.00;;;9.94;100.00
28606;BME280;46498;49.968;7.754;2024-03-02T12:13:28;-18604.00;;;10.23;100.00
28606;BME280;46498;49.968;7.754;2024-03-02T12:18:29;-18591.00;;;9.83;100.00
28606;BME280;46498;49.968;7.754;2024-03-02T12:23:30;-18591.00;;;9.83;100.00
28606;BME280;46498;49.968;7.754;2024-03-02T12:28:32;-18589.00;;;9.76;100.00
28606;BME280;46498;49.968;7.754;2024-03-02T12:33:35;-18588.00;;;9.74;100.00
28606;BME280;46498;49.968;7.754;2024-03-02T12:38:37;-18597.00;;;10.03;100.00
28606;BME280;46498;49.968;7.754;2024-03-02T12:43:43;-18581.00;;;9.52;100.00
28606;BME280;46498;49.968;7.754;2024-03-02T12:48:45;-18587.00;;;9.70;100.00
28606;BME280;46498;49.968;7.754;2024-03-02T12:53:53;-18582.00;;;9.55;100.00
28606;BME280;46498;49.968;7.754;2024-03-02T12:58:55;-18586.00;;;9.68;100.00
28606;BME280;46498;49.968;7.754;2024-03-02T13:03:58;-18582.00;;;9.56;100.00
28606;BME280;46498;49.968;7.754;2024-03-02T13:08:59;-18579.00;;;9.46;100.00
28606;BME280;46498;49.968;7.754;2024-03-02T13:14:00;-18573.00;;;9.26;100.00
28606;BME280;46498;49.968;7.754;2024-03-02T13:19:01;-18576.00;;;9.35;100.00
28606;BME280;46498;49.968;7.754;2024-03-02T13:24:04;-18585.00;;;9.65;100.00
28606;BME280;46498;49.968;7.754;2024-03-02T13:29:05;-18593.00;;;9.88;100.00
28606;BME280;46498;49.968;7.754;2024-03-02T13:34:06;-18609.00;;;10.40;100.00
28606;BME280;46498;49.968;7.754;2024-03-02T13:39:08;-18614.00;;;10.54;100.00
28606;BME280;46498;49.968;7.754;2024-03-02T13:44:16;-18624.00;;;10.88;100.00
28606;BME280;46498;49.968;7.754;2024-03-02T13:49:17;-18626.00;;;10.93;100.00
28606;BME280;46498;49.968;7.754;2024-03-02T13:54:18;-18616.00;;;10.62;100.00
28606;BME280;46498;49.968;7.754;2024-03-02T13:59:21;-18597.00;;;10.01;100.00
28606;BME280;46498;49.968;7.754;2024-03-02T14:04:23;-18599.00;;;10.08;100.00
28606;BME280;46498;49.968;7.754;2024-03-02T14:09:24;-18632.00;;;11.13;100.00
28606;BME280;46498;49.968;7.754;2024-03-02T14:14:28;-18633.00;;;11.15;100.00
28606;BME280;46498;49.968;7.754;2024-03-02T14:19:29;-18649.00;;;11.64;100.00
28606;BME280;46498;49.968;7.754;2024-03-02T14:24:30;-18619.00;;;10.71;100.00
28606;BME280;46498;49.968;7.754;2024-03-02T14:29:31;-18607.00;;;10.32;100.00
28606;BME280;46498;49.968;7.754;2024-03-02T14:34:33;-18599.00;;;10.08;100.00
28606;BME280;46498;49.968;7.754;2024-03-02T14:39:37;-18603.00;;;10.20;100.00
28606;BME280;46498;49.968;7.754;2024-03-02T14:44:38;-18601.00;;;10.15;100.00
28606;BME280;46498;49.968;7.754;2024-03-02T14:49:39;-18605.00;;;10.28;100.00
28606;BME280;46498;49.968;7.754;2024-03-02T14:54:41;-18603.00;;;10.21;100.00
28606;BME280;46498;49.968;7.754;2024-03-02T14:59:43;-18605.00;;;10.27;100.00
28606;BME280;46498;49.968;7.754;2024-03-02T15:04:44;-18608.00;;;10.35;100.00
28606;BME280;46498;49.968;7.754;2024-03-02T15:09:46;-18608.00;;;10.37;100.00
28606;BME280;46498;49.968;7.754;2024-03-02T15:14:47;-18606.00;;;10.31;99.87
28606;BME280;46498;49.968;7.754;2024-03-02T15:19:48;-18607.00;;;10.34;100.00
28606;BME280;46498;49.968;7.754;2024-03-02T15:24:49;-18607.00;;;10.35;100.00
28606;BME280;46498;49.968;7.754;2024-03-02T15:29:51;-18609.00;;;10.38;98.43
28606;BME280;46498;49.968;7.754;2024-03-02T15:34:53;-18610.00;;;10.42;97.00
28606;BME280;46498;49.968;7.754;2024-03-02T15:39:54;-18611.00;;;10.47;91.27
28606;BME280;46498;49.968;7.754;2024-03-02T15:44:55;-18611.00;;;10.46;90.74
28606;BME280;46498;49.968;7.754;2024-03-02T15:49:56;-18611.00;;;10.46;94.53
28606;BME280;46498;49.968;7.754;2024-03-02T15:55:00;-18611.00;;;10.46;91.28
28606;BME280;46498;49.968;7.754;2024-03-02T16:00:03;-18610.00;;;10.43;91.94
28606;BME280;46498;49.968;7.754;2024-03-02T16:05:11;-18608.00;;;10.37;93.97
28606;BME280;46498;49.968;7.754;2024-03-02T16:10:13;-18605.00;;;10.28;94.64
28606;BME280;46498;49.968;7.754;2024-03-02T16:15:14;-18605.00;;;10.27;96.07
28606;BME280;46498;49.968;7.754;2024-03-02T16:20:18;-18603.00;;;10.22;93.63
28606;BME280;46498;49.968;7.754;2024-03-02T16:25:21;-18601.00;;;10.14;99.10
28606;BME280;46498;49.968;7.754;2024-03-02T16:30:25;-18599.00;;;10.09;100.00
28606;BME280;46498;49.968;7.754;2024-03-02T16:35:26;-18596.00;;;9.99;100.00
28606;BME280;46498;49.968;7.754;2024-03-02T16:40:27;-18595.00;;;9.95;100.00
28606;BME280;46498;49.968;7.754;2024-03-02T16:45:28;-18589.00;;;9.78;100.00
28606;BME280;46498;49.968;7.754;2024-03-02T16:50:30;-18586.00;;;9.68;100.00
28606;BME280;46498;49.968;7.754;2024-03-02T16:55:31;-18587.00;;;9.71;100.00
28606;BME280;46498;49.968;7.754;2024-03-02T17:00:32;-18586.00;;;9.69;100.00
28606;BME280;46498;49.968;7.754;2024-03-02T17:05:33;-18583.00;;;9.58;100.00
28606;BME280;46498;49.968;7.754;2024-03-02T17:10:34;-18582.00;;;9.56;100.00
28606;BME280;46498;49.968;7.754;2024-03-02T17:15:35;-18582.00;;;9.55;100.00
28606;BME280;46498;49.968;7.754;2024-03-02T17:20:36;-18581.00;;;9.51;100.00
28606;BME280;46498;49.968;7.754;2024-03-02T17:25:37;-18579.00;;;9.46;100.00
28606;BME280;46498;49.968;7.754;2024-03-02T17:30:38;-18583.00;;;9.58;100.00
28606;BME280;46498;49.968;7.754;2024-03-02T17:35:39;-18579.00;;;9.44;100.00
28606;BME280;46498;49.968;7.754;2024-03-02T17:40:40;-18577.00;;;9.40;100.00
28606;BME280;46498;49.968;7.754;2024-03-02T17:45:41;-18576.00;;;9.35;100.00
28606;BME280;46498;49.968;7.754;2024-03-02T17:50:42;-18575.00;;;9.33;100.00
28606;BME280;46498;49.968;7.754;2024-03-02T17:55:43;-18574.00;;;9.30;100.00
28606;BME280;46498;49.968;7.754;2024-03-02T18:00:45;-18575.00;;;9.34;100.00
28606;BME280;46498;49.968;7.754;2024-03-02T18:05:47;-18575.00;;;9.32;100.00
28606;BME280;46498;49.968;7.754;2024-03-02T18:10:47;-18572.00;;;9.23;100.00
28606;BME280;46498;49.968;7.754;2024-03-02T18:15:51;-18572.00;;;9.24;100.00
28606;BME280;46498;49.968;7.754;2024-03-02T18:20:52;-18567.00;;;9.08;100.00
28606;BME280;46498;49.968;7.754;2024-03-02T18:25:53;-18567.00;;;9.07;100.00
28606;BME280;46498;49.968;7.754;2024-03-02T18:30:54;-18567.00;;;9.09;100.00
28606;BME280;46498;49.968;7.754;2024-03-02T18:35:55;-18565.00;;;9.00;100.00
28606;BME280;46498;49.968;7.754;2024-03-02T18:40:56;-18563.00;;;8.97;100.00
28606;BME280;46498;49.968;7.754;2024-03-02T18:45:58;-18562.00;;;8.91;100.00
28606;BME280;46498;49.968;7.754;2024-03-02T18:51:07;-18559.00;;;8.83;100.00
28606;BME280;46498;49.968;7.754;2024-03-02T18:56:08;-18558.00;;;8.80;100.00
28606;BME280;46498;49.968;7.754;2024-03-02T19:01:12;-18560.00;;;8.85;100.00
28606;BME280;46498;49.968;7.754;2024-03-02T19:06:14;-18552.00;;;8.62;100.00
28606;BME280;46498;49.968;7.754;2024-03-02T19:11:17;-18547.00;;;8.46;100.00
28606;BME280;46498;49.968;7.754;2024-03-02T19:16:19;-18545.00;;;8.38;100.00
28606;BME280;46498;49.968;7.754;2024-03-02T19:21:20;-18540.00;;;8.24;100.00
28606;BME280;46498;49.968;7.754;2024-03-02T19:26:21;-18536.00;;;8.09;100.00
28606;BME280;46498;49.968;7.754;2024-03-02T19:31:22;-18535.00;;;8.06;100.00
28606;BME280;46498;49.968;7.754;2024-03-02T19:36:23;-18539.00;;;8.19;100.00
28606;BME280;46498;49.968;7.754;2024-03-02T19:41:25;-18536.00;;;8.11;100.00
28606;BME280;46498;49.968;7.754;2024-03-02T19:46:26;-18532.00;;;7.97;100.00
28606;BME280;46498;49.968;7.754;2024-03-02T19:51:27;-18528.00;;;7.87;100.00
28606;BME280;46498;49.968;7.754;2024-03-02T19:56:29;-18524.00;;;7.72;100.00
28606;BME280;46498;49.968;7.754;2024-03-02T20:01:30;-18520.00;;;7.61;100.00
28606;BME280;46498;49.968;7.754;2024-03-02T20:06:32;-18520.00;;;7.62;100.00
28606;BME280;46498;49.968;7.754;2024-03-02T20:11:33;-18531.00;;;7.96;100.00
28606;BME280;46498;49.968;7.754;2024-03-02T20:16:34;-18545.00;;;8.40;100.00
28606;BME280;46498;49.968;7.754;2024-03-02T20:21:35;-18549.00;;;8.53;100.00
28606;BME280;46498;49.968;7.754;2024-03-02T20:26:39;-18558.00;;;8.78;100.00
28606;BME280;46498;49.968;7.754;2024-03-02T20:31:40;-18566.00;;;9.06;100.00
28606;BME280;46498;49.968;7.754;2024-03-02T20:36:42;-18568.00;;;9.12;100.00
28606;BME280;46498;49.968;7.754;2024-03-02T20:41:45;-18568.00;;;9.12;100.00
28606;BME280;46498;49.968;7.754;2024-03-02T20:46:47;-18563.00;;;8.96;100.00
28606;BME280;46498;49.968;7.754;2024-03-02T20:51:49;-18560.00;;;8.87;100.00
28606;BME280;46498;49.968;7.754;2024-03-02T20:56:50;-18555.00;;;8.71;100.00
28606;BME280;46498;49.968;7.754;2024-03-02T21:01:53;-18557.00;;;8.77;100.00
28606;BME280;46498;49.968;7.754;2024-03-02T21:06:54;-18555.00;;;8.72;100.00
28606;BME280;46498;49.968;7.754;2024-03-02T21:11:55;-18554.00;;;8.66;100.00
28606;BME280;46498;49.968;7.754;2024-03-02T21:16:56;-18554.00;;;8.68;100.00
28606;BME280;46498;49.968;7.754;2024-03-02T21:21:57;-18553.00;;;8.65;100.00
28606;BME280;46498;49.968;7.754;2024-03-02T21:27:02;-18551.00;;;8.57;100.00
28606;BME280;46498;49.968;7.754;2024-03-02T21:32:04;-18546.00;;;8.43;100.00
28606;BME280;46498;49.968;7.754;2024-03-02T21:37:05;-18545.00;;;8.39;100.00
28606;BME280;46498;49.968;7.754;2024-03-02T21:42:06;-18544.00;;;8.37;100.00
28606;BME280;46498;49.968;7.754;2024-03-02T21:47:07;-18544.00;;;8.35;100.00
28606;BME280;46498;49.968;7.754;2024-03-02T21:52:08;-18544.00;;;8.36;100.00
28606;BME280;46498;49.968;7.754;2024-03-02T21:57:10;-18543.00;;;8.34;100.00
28606;BME280;46498;49.968;7.754;2024-03-02T22:02:17;-18544.00;;;8.35;100.00
28606;BME280;46498;49.968;7.754;2024-03-02T22:07:18;-18541.00;;;8.26;100.00
28606;BME280;46498;49.968;7.754;2024-03-02T22:12:19;-18539.00;;;8.20;100.00
28606;BME280;46498;49.968;7.754;2024-03-02T22:17:22;-18534.00;;;8.06;100.00
28606;BME280;46498;49.968;7.754;2024-03-02T22:22:23;-18534.00;;;8.04;100.00
28606;BME280;46498;49.968;7.754;2024-03-02T22:27:24;-18531.00;;;7.96;100.00
28606;BME280;46498;49.968;7.754;2024-03-02T22:32:25;-18531.00;;;7.96;100.00
28606;BME280;46498;49.968;7.754;2024-03-02T22:37:26;-18527.00;;;7.82;100.00
28606;BME280;46498;49.968;7.754;2024-03-02T22:42:27;-18530.00;;;7.92;100.00
28606;BME280;46498;49.968;7.754;2024-03-02T22:47:27;-18529.00;;;7.89;100.00
28606;BME280;46498;49.968;7.754;2024-03-02T22:52:28;-18527.00;;;7.83;100.00
28606;BME280;46498;49.968;7.754;2024-03-02T22:57:31;-18531.00;;;7.96;100.00
28606;BME280;46498;49.968;7.754;2024-03-02T23:02:32;-18531.00;;;7.94;100.00
28606;BME280;46498;49.968;7.754;2024-03-02T23:07:33;-18530.00;;;7.93;100.00
28606;BME280;46498;49.968;7.754;2024-03-02T23:12:34;-18530.00;;;7.91;100.00
28606;BME280;46498;49.968;7.754;2024-03-02T23:17:35;-18526.00;;;7.80;100.00
28606;BME280;46498;49.968;7.754;2024-03-02T23:22:36;-18525.00;;;7.77;100.00
28606;BME280;46498;49.968;7.754;2024-03-02T23:27:37;-18528.00;;;7.84;100.00
28606;BME280;46498;49.968;7.754;2024-03-02T23:32:38;-18521.00;;;7.64;100.00
28606;BME280;46498;49.968;7.754;2024-03-02T23:37:39;-18522.00;;;7.67;100.00
28606;BME280;46498;49.968;7.754;2024-03-02T23:42:41;-18521.00;;;7.63;100.00
28606;BME280;46498;49.968;7.754;2024-03-02T23:47:42;-18516.00;;;7.49;100.00
28606;BME280;46498;49.968;7.754;2024-03-02T23:52:43;-18516.00;;;7.49;100.00
28606;BME280;46498;49.968;7.754;2024-03-02T23:57:44;-18516.00;;;7.49;100.00
